createdAt,value
2018-02-02T04:30:27.055Z,0.50
2018-02-02T04:32:54.818Z,0.40
2018-02-02T04:35:27.299Z,0.40
2018-02-02T04:37:57.811Z,0.50
2018-02-02T04:40:25.786Z,0.50
2018-02-02T04:42:53.549Z,0.40
2018-02-02T04:45:21.247Z,0.40
2018-02-02T04:47:49.894Z,0.40
2018-02-02T04:50:17.658Z,0.40
2018-02-02T04:52:45.523Z,0.30
2018-02-02T04:55:13.490Z,0.30
2018-02-02T04:57:41.253Z,0.30
2018-02-02T05:00:09.016Z,0.30
2018-02-02T05:02:36.882Z,0.30
2018-02-02T05:05:04.644Z,0.30
2018-02-02T05:07:32.510Z,0.30
2018-02-02T05:10:00.374Z,0.40
2018-02-02T05:12:28.179Z,0.40
2018-02-02T05:14:56.824Z,0.30
2018-02-02T05:17:24.689Z,0.30
2018-02-02T05:19:52.554Z,0.40
2018-02-02T05:22:20.417Z,0.30
2018-02-02T05:24:48.181Z,0.30
2018-02-02T05:27:16.046Z,0.30
2018-02-02T05:29:43.913Z,0.40
2018-02-02T05:32:11.776Z,0.40
2018-02-02T05:34:39.642Z,0.40
2018-02-02T05:37:07.506Z,0.40
2018-02-02T05:39:35.373Z,0.30
2018-02-02T05:42:03.135Z,0.30
2018-02-02T05:44:31.102Z,0.20
2018-02-02T05:46:58.865Z,0.20
2018-02-02T05:49:26.628Z,0.20
2018-02-02T05:51:54.494Z,0.10
2018-02-02T05:54:22.211Z,0.10
2018-02-02T05:56:50.019Z,0.30
2018-02-02T05:59:17.987Z,0.30
2018-02-02T06:01:45.856Z,0.40
2018-02-02T06:04:13.823Z,0.40
2018-02-02T06:06:41.537Z,0.40
2018-02-02T06:09:09.447Z,0.30
2018-02-02T06:11:37.313Z,0.20
2018-02-02T06:14:05.076Z,0.30
2018-02-02T06:16:32.839Z,0.30
2018-02-02T06:19:00.704Z,0.20
2018-02-02T06:21:28.569Z,0.30
2018-02-02T06:23:56.435Z,0.20
2018-02-02T06:26:24.302Z,0.10
2018-02-02T06:28:52.166Z,0.20
2018-02-02T06:31:19.928Z,0.20
2018-02-02T06:33:47.794Z,0.20
2018-02-02T06:36:15.659Z,0.30
2018-02-02T06:38:43.422Z,0.20
2018-02-02T06:41:11.389Z,0.20
2018-02-02T06:43:39.152Z,0.20
2018-02-02T06:46:07.021Z,0.10
2018-02-02T06:48:34.781Z,0.20
2018-02-02T06:51:02.583Z,0.20
2018-02-02T06:53:31.125Z,0.20
2018-02-02T06:55:58.975Z,0.20
2018-02-02T06:58:26.856Z,0.20
2018-02-02T07:00:54.823Z,0.20
2018-02-02T07:03:22.737Z,0.20
2018-02-02T07:05:51.373Z,0.20
2018-02-02T07:08:19.136Z,0.20
2018-02-02T07:10:47.002Z,0.30
2018-02-02T07:13:14.867Z,0.20
2018-02-02T07:15:42.629Z,0.20
2018-02-02T07:18:10.393Z,0.10
2018-02-02T07:20:38.258Z,0.10
2018-02-02T07:23:06.023Z,0.10
2018-02-02T07:25:33.886Z,0.20
2018-02-02T07:28:01.693Z,0.20
2018-02-02T07:30:30.232Z,0.40
2018-02-02T07:32:58.097Z,0.40
2018-02-02T07:35:25.816Z,0.60
2018-02-02T07:37:53.487Z,0.70
2018-02-02T07:40:21.185Z,0.90
2018-02-02T07:42:48.887Z,1.10
2018-02-02T07:45:17.363Z,1.50
2018-02-02T07:47:45.828Z,1.60
2018-02-02T07:50:14.375Z,1.60
2018-02-02T07:52:42.076Z,1.60
2018-02-02T07:55:10.547Z,1.90
2018-02-02T07:57:38.255Z,1.90
2018-02-02T08:00:05.927Z,1.90
2018-02-02T08:02:33.599Z,1.90
2018-02-02T08:05:01.315Z,2.00
2018-02-02T08:07:29.778Z,2.00
2018-02-02T08:09:58.279Z,2.00
2018-02-02T08:12:25.963Z,2.00
2018-02-02T08:14:53.635Z,1.90
2018-02-02T08:17:21.363Z,1.90
2018-02-02T08:19:51.279Z,2.00
2018-02-02T08:22:19.107Z,1.90
2018-02-02T08:24:46.831Z,2.10
2018-02-02T08:27:14.523Z,2.10
2018-02-02T08:29:42.221Z,2.30
2018-02-02T08:32:10.723Z,2.50
2018-02-02T08:34:38.418Z,2.50
2018-02-02T08:37:06.091Z,2.60
2018-02-02T08:39:33.787Z,2.60
2018-02-02T08:42:02.321Z,2.60
2018-02-02T08:44:30.184Z,2.60
2018-02-02T08:46:57.947Z,2.60
2018-02-02T08:49:25.710Z,2.70
2018-02-02T08:51:53.575Z,2.70
2018-02-02T08:54:21.354Z,2.70
2018-02-02T08:56:49.151Z,2.80
2018-02-02T08:59:17.068Z,2.80
2018-02-02T09:01:50.502Z,2.70
2018-02-02T09:04:19.147Z,2.60
2018-02-02T09:06:46.911Z,2.50
2018-02-02T09:09:14.779Z,2.50
2018-02-02T09:11:42.590Z,2.60
2018-02-02T09:14:10.507Z,2.60
2018-02-02T09:16:38.274Z,2.60
2018-02-02T09:19:06.138Z,2.70
2018-02-02T09:21:33.837Z,2.80
2018-02-02T09:24:02.298Z,2.80
2018-02-02T09:26:30.047Z,2.80
2018-02-02T09:28:57.905Z,2.80
2018-02-02T09:31:25.771Z,2.80
2018-02-02T09:33:53.637Z,2.70
2018-02-02T09:36:21.439Z,2.60
2018-02-02T09:38:49.980Z,2.40
2018-02-02T09:41:17.846Z,2.40
2018-02-02T09:43:45.608Z,2.40
2018-02-02T09:46:13.473Z,2.50
2018-02-02T09:48:41.175Z,2.60
2018-02-02T09:51:09.818Z,2.70
2018-02-02T09:53:37.683Z,2.70
2018-02-02T09:56:05.487Z,2.70
2018-02-02T09:58:34.028Z,2.70
2018-02-02T10:01:01.943Z,2.70
2018-02-02T10:03:30.578Z,2.80
2018-02-02T10:05:58.444Z,2.70
2018-02-02T10:08:26.247Z,2.90
2018-02-02T10:10:54.788Z,2.90
2018-02-02T10:13:22.553Z,2.90
2018-02-02T10:15:50.522Z,3.00
2018-02-02T10:18:18.282Z,3.00
2018-02-02T10:20:46.046Z,3.00
2018-02-02T10:23:14.115Z,3.00
2018-02-02T10:25:41.827Z,3.00
2018-02-02T10:28:09.645Z,2.90
2018-02-02T10:30:37.556Z,2.90
2018-02-02T10:33:06.191Z,3.00
2018-02-02T10:35:33.954Z,3.00
2018-02-02T10:38:01.859Z,3.00
2018-02-02T10:40:30.339Z,3.20
2018-02-02T10:42:59.026Z,3.10
2018-02-02T10:45:29.262Z,3.10
2018-02-02T10:47:57.068Z,3.00
2018-02-02T10:50:24.934Z,3.00
2018-02-02T10:52:52.800Z,3.00
2018-02-02T10:55:20.665Z,3.00
2018-02-02T10:57:48.532Z,3.00
2018-02-02T11:00:16.293Z,3.00
2018-02-02T11:02:49.793Z,3.10
2018-02-02T11:05:17.556Z,3.20
2018-02-02T11:07:45.320Z,3.30
2018-02-02T11:10:13.182Z,3.30
2018-02-02T11:12:40.874Z,3.40
2018-02-02T11:15:09.363Z,3.40
2018-02-02T11:17:38.007Z,3.40
2018-02-02T11:20:05.775Z,3.40
2018-02-02T11:22:33.636Z,3.40
2018-02-02T11:25:01.503Z,3.40
2018-02-02T11:27:29.271Z,3.50
2018-02-02T11:29:57.075Z,3.50
2018-02-02T11:32:25.751Z,3.60
2018-02-02T11:34:54.395Z,3.60
2018-02-02T11:37:22.157Z,3.60
2018-02-02T11:39:50.024Z,3.70
2018-02-02T11:42:17.788Z,3.70
2018-02-02T11:44:45.602Z,3.80
2018-02-02T11:47:13.415Z,3.80
2018-02-02T11:49:41.383Z,3.80
2018-02-02T11:52:09.370Z,3.90
2018-02-02T11:54:37.215Z,4.00
2018-02-02T11:57:05.183Z,4.10
2018-02-02T11:59:32.946Z,4.20
2018-02-02T12:02:00.709Z,4.20
2018-02-02T12:04:28.472Z,4.20
2018-02-02T12:06:56.235Z,4.20
2018-02-02T12:09:23.936Z,4.20
2018-02-02T12:11:52.580Z,4.10
2018-02-02T12:14:20.346Z,4.10
2018-02-02T12:16:48.208Z,4.20
2018-02-02T12:19:16.012Z,4.20
2018-02-02T12:24:50.920Z,4.10
2018-02-02T12:27:37.422Z,4.10
2018-02-02T12:30:11.023Z,4.00
2018-02-02T12:35:42.699Z,3.90
2018-02-02T12:38:10.565Z,4.00
2018-02-02T12:40:39.246Z,3.90
2018-02-02T12:43:07.011Z,3.90
2018-02-02T12:45:34.874Z,3.90
2018-02-02T12:48:03.660Z,3.90
2018-02-02T12:53:36.103Z,3.90
2018-02-02T12:56:03.916Z,3.90
2018-02-02T12:58:31.730Z,3.90
2018-02-02T13:00:59.544Z,3.90
2018-02-02T13:03:27.358Z,3.90
2018-02-02T13:05:55.173Z,3.80
2018-02-02T13:08:23.037Z,3.90
2018-02-02T13:10:51.006Z,3.90
2018-02-02T13:13:18.769Z,3.80
2018-02-02T13:15:46.469Z,3.70
2018-02-02T13:18:15.114Z,3.70
2018-02-02T13:20:42.979Z,3.70
2018-02-02T13:23:10.742Z,3.80
2018-02-02T13:25:38.558Z,3.70
2018-02-02T13:28:06.474Z,3.70
2018-02-02T13:30:34.338Z,3.70
2018-02-02T13:33:02.102Z,3.70
2018-02-02T13:35:29.903Z,3.60
2018-02-02T13:37:58.548Z,3.60
2018-02-02T13:40:26.311Z,3.60
2018-02-02T13:42:53.983Z,3.70
2018-02-02T13:45:21.837Z,3.70
2018-02-02T13:47:49.703Z,3.70
2018-02-02T13:50:17.569Z,3.70
2018-02-02T13:52:45.536Z,3.60
2018-02-02T13:55:13.300Z,3.60
2018-02-02T13:57:41.068Z,3.60
2018-02-02T14:00:09.643Z,3.50
2018-02-02T14:02:37.518Z,3.50
2018-02-02T14:05:05.376Z,3.50
2018-02-02T14:07:33.139Z,3.60
2018-02-02T14:10:00.903Z,3.50
2018-02-02T14:12:28.765Z,3.60
2018-02-02T14:14:56.630Z,3.40
2018-02-02T14:17:24.496Z,3.40
2018-02-02T14:19:52.463Z,3.40
2018-02-02T14:22:20.328Z,3.40
2018-02-02T14:24:48.194Z,3.30
2018-02-02T14:27:15.995Z,3.40
2018-02-02T14:29:44.539Z,3.40
2018-02-02T14:32:12.404Z,3.40
2018-02-02T14:34:40.272Z,3.40
2018-02-02T14:37:08.238Z,3.40
2018-02-02T14:39:36.102Z,3.30
2018-02-02T14:42:03.968Z,3.30
2018-02-02T14:44:31.935Z,3.30
2018-02-02T14:46:59.701Z,3.30
2018-02-02T14:49:27.512Z,3.40
2018-02-02T14:51:56.257Z,3.50
2018-02-02T14:54:24.011Z,3.40
2018-02-02T14:56:51.879Z,3.40
2018-02-02T14:59:19.846Z,3.50
2018-02-02T15:01:47.607Z,3.40
2018-02-02T15:04:15.369Z,3.40
2018-02-02T15:06:43.235Z,3.40
2018-02-02T15:09:10.998Z,3.50
2018-02-02T15:11:38.864Z,3.40
2018-02-02T15:14:06.729Z,3.30
2018-02-02T15:16:34.597Z,3.30
2018-02-02T15:19:02.360Z,3.30
2018-02-02T15:21:30.223Z,3.40
2018-02-02T15:23:57.937Z,3.30
2018-02-02T15:26:25.751Z,3.30
2018-02-02T15:28:53.614Z,3.30
2018-02-02T15:31:21.478Z,3.30
2018-02-02T15:33:49.344Z,3.30
2018-02-02T15:36:17.209Z,3.30
2018-02-02T15:38:44.973Z,3.30
2018-02-02T15:41:12.939Z,3.30
2018-02-02T15:43:40.651Z,3.30
2018-02-02T15:46:08.468Z,3.30
2018-02-02T15:48:36.282Z,3.40
2018-02-02T15:51:04.094Z,3.30
2018-02-02T15:53:31.959Z,3.20
2018-02-02T15:55:59.824Z,3.20
2018-02-02T15:58:27.527Z,3.20
2018-02-02T16:00:56.067Z,3.20
2018-02-02T16:03:23.934Z,3.10
2018-02-02T16:05:51.797Z,3.20
2018-02-02T16:08:19.663Z,3.20
2018-02-02T16:10:47.476Z,3.10
2018-02-02T16:13:15.291Z,3.10
2018-02-02T16:15:43.095Z,3.00
2018-02-02T16:18:11.739Z,2.90
2018-02-02T16:20:39.420Z,2.90
2018-02-02T16:23:07.131Z,2.90
2018-02-02T16:25:34.832Z,2.80
2018-02-02T16:28:02.690Z,2.70
2018-02-02T16:30:30.410Z,2.60
2018-02-02T16:32:58.112Z,2.60
2018-02-02T16:35:25.816Z,2.50
2018-02-02T16:37:54.331Z,2.40
2018-02-02T16:40:22.117Z,2.40
2018-02-02T16:42:49.935Z,2.40
2018-02-02T16:45:17.660Z,2.40
2018-02-02T16:47:45.355Z,2.30
2018-02-02T16:50:13.055Z,2.20
2018-02-02T16:52:40.763Z,2.10
2018-02-02T16:55:09.204Z,2.10
2018-02-02T16:57:36.942Z,2.10
2018-02-02T17:00:05.371Z,2.10
2018-02-02T17:02:33.067Z,2.10
2018-02-02T17:05:00.789Z,2.20
2018-02-02T17:07:28.478Z,2.20
2018-02-02T17:09:56.919Z,2.30
2018-02-02T17:12:24.639Z,2.20
2018-02-02T17:14:52.307Z,2.30
2018-02-02T17:17:20.007Z,2.20
2018-02-02T17:19:47.731Z,2.30
2018-02-02T17:22:15.404Z,2.30
2018-02-02T17:24:43.103Z,2.30
2018-02-02T17:27:10.884Z,2.40
2018-02-02T17:29:39.319Z,2.40
2018-02-02T17:32:07.006Z,2.40
2018-02-02T17:34:34.726Z,2.40
2018-02-02T17:37:02.574Z,2.50
2018-02-02T17:39:30.290Z,2.40
2018-02-02T17:41:58.819Z,2.40
2018-02-02T17:44:26.549Z,2.40
2018-02-02T17:46:55.017Z,2.50
2018-02-02T17:49:22.857Z,2.50
2018-02-02T17:51:50.723Z,2.70
2018-02-02T17:54:18.485Z,2.70
2018-02-02T17:56:46.350Z,2.70
2018-02-02T17:59:14.113Z,2.70
2018-02-02T18:01:45.461Z,2.70
2018-02-02T18:04:13.325Z,2.80
2018-02-02T18:06:41.089Z,2.80
2018-02-02T18:09:08.913Z,2.70
2018-02-02T18:11:36.823Z,2.70
2018-02-02T18:14:04.584Z,2.70
2018-02-02T18:16:32.449Z,2.70
2018-02-02T18:19:00.213Z,2.70
2018-02-02T18:21:28.016Z,2.70
2018-02-02T18:23:56.760Z,2.80
2018-02-02T18:26:24.631Z,2.70
2018-02-02T18:28:52.492Z,2.70
2018-02-02T18:31:20.459Z,2.70
2018-02-02T18:33:48.324Z,2.70
2018-02-02T18:36:16.086Z,2.70
2018-02-02T18:38:44.260Z,2.80
2018-02-02T18:41:12.025Z,2.90
2018-02-02T18:43:39.734Z,2.80
2018-02-02T18:46:07.703Z,2.80
2018-02-02T18:48:35.516Z,2.70
2018-02-02T18:51:03.386Z,2.70
2018-02-02T18:53:31.924Z,2.80
2018-02-02T18:55:59.690Z,2.80
2018-02-02T18:58:27.900Z,2.90
2018-02-02T19:00:55.599Z,2.90
2018-02-02T19:03:24.035Z,2.80
2018-02-02T19:05:51.776Z,2.80
2018-02-02T19:08:19.743Z,2.80
2018-02-02T19:10:47.470Z,2.90
2018-02-02T19:13:16.418Z,2.80
2018-02-02T19:15:45.154Z,2.80
2018-02-02T19:18:12.902Z,2.80
2018-02-02T19:20:41.450Z,2.90
2018-02-02T19:23:09.214Z,2.80
2018-02-02T19:25:37.079Z,2.90
2018-02-02T19:28:04.945Z,2.90
2018-02-02T19:30:32.913Z,2.90
2018-02-02T19:33:00.715Z,3.00
2018-02-02T19:35:29.258Z,2.90
2018-02-02T19:37:57.123Z,2.90
2018-02-02T19:40:24.886Z,2.80
2018-02-02T19:42:52.648Z,2.80
2018-02-02T19:45:20.456Z,3.00
2018-02-02T19:47:48.931Z,2.90
2018-02-02T19:50:17.474Z,2.90
2018-02-02T19:52:45.544Z,2.90
2018-02-02T19:55:13.409Z,2.90
2018-02-02T19:57:42.067Z,2.90
2018-02-02T20:00:09.852Z,2.90
2018-02-02T20:02:37.529Z,2.90
2018-02-02T20:05:05.205Z,2.90
2018-02-02T20:07:33.044Z,2.90
2018-02-02T20:10:02.028Z,2.90
2018-02-02T20:12:30.719Z,2.90
2018-02-02T20:14:58.481Z,2.90
2018-02-02T20:17:26.248Z,2.90
2018-02-02T20:19:54.213Z,2.90
2018-02-02T20:22:21.975Z,2.90
2018-02-02T20:24:49.738Z,2.80
2018-02-02T20:27:17.604Z,2.80
2018-02-02T20:29:45.366Z,2.90
2018-02-02T20:32:13.233Z,2.90
2018-02-02T20:34:41.966Z,2.80
2018-02-02T20:37:10.601Z,2.90
2018-02-02T20:39:38.466Z,2.90
2018-02-02T20:42:06.332Z,3.00
2018-02-02T20:44:34.148Z,3.00
2018-02-02T20:47:02.063Z,3.00
2018-02-02T20:49:29.928Z,2.90
2018-02-02T20:51:57.733Z,2.90
2018-02-02T20:54:26.273Z,2.90
2018-02-02T20:56:54.179Z,2.90
2018-02-02T20:59:22.720Z,2.90
2018-02-02T21:01:50.587Z,2.90
2018-02-02T21:04:18.556Z,2.90
2018-02-02T21:06:46.318Z,2.90
2018-02-02T21:09:14.181Z,3.00
2018-02-02T21:11:42.049Z,2.90
2018-02-02T21:14:09.812Z,2.90
2018-02-02T21:16:37.675Z,2.90
2018-02-02T21:19:05.478Z,2.90
2018-02-02T21:21:34.123Z,2.70
2018-02-02T21:24:01.988Z,2.70
2018-02-02T21:26:29.907Z,2.70
2018-02-02T21:28:57.827Z,2.80
2018-02-02T21:31:25.639Z,2.80
2018-02-02T21:33:53.552Z,2.90
2018-02-02T21:36:21.315Z,2.80
2018-02-02T21:38:49.181Z,2.90
2018-02-02T21:41:16.942Z,2.80
2018-02-02T21:43:44.842Z,2.80
2018-02-02T21:46:13.391Z,2.90
2018-02-02T21:48:41.153Z,2.90
2018-02-02T21:51:09.121Z,2.90
2018-02-02T21:53:36.885Z,3.00
2018-02-02T21:56:04.649Z,3.10
2018-02-02T21:58:32.515Z,3.00
2018-02-02T22:01:00.380Z,3.00
2018-02-02T22:03:28.243Z,2.90
2018-02-02T22:05:56.108Z,2.90
2018-02-02T22:08:23.974Z,2.90
2018-02-02T22:10:51.687Z,2.90
2018-02-02T22:13:19.602Z,2.90
2018-02-02T22:15:47.468Z,3.00
2018-02-02T22:18:15.231Z,3.00
2018-02-02T22:20:43.198Z,3.00
2018-02-02T22:23:10.914Z,2.90
2018-02-02T22:25:38.826Z,2.90
2018-02-02T22:28:06.692Z,2.90
2018-02-02T22:30:34.454Z,2.90
2018-02-02T22:33:02.319Z,3.00
2018-02-02T22:35:30.085Z,3.00
2018-02-02T22:37:57.948Z,3.00
2018-02-02T22:40:25.916Z,3.00
2018-02-02T22:42:53.782Z,3.00
2018-02-02T22:45:21.494Z,3.00
2018-02-02T22:47:49.309Z,3.00
2018-02-02T22:50:17.175Z,2.90
2018-02-02T22:52:44.937Z,3.00
2018-02-02T22:55:12.739Z,3.00
2018-02-02T22:57:41.280Z,2.90
2018-02-02T23:00:09.045Z,2.90
2018-02-02T23:02:36.913Z,3.00
2018-02-02T23:05:04.672Z,3.00
2018-02-02T23:07:32.542Z,3.00
2018-02-02T23:10:00.402Z,3.00
2018-02-02T23:12:28.371Z,2.90
2018-02-02T23:14:56.133Z,3.00
2018-02-02T23:17:23.997Z,3.00
2018-02-02T23:19:51.966Z,2.90
2018-02-02T23:22:19.830Z,2.90
2018-02-02T23:24:47.698Z,3.00
2018-02-02T23:27:15.564Z,3.00
2018-02-02T23:29:43.325Z,2.90
